x

West Superior - 30nm Ne Of Outer Island, Wi (45006) Wave Buoy

3:50am - Mon 25th Sep 2017 All times are CDT. -5 hours from GMT.

  • Sig Wave height 1.0ft
  • Swell Direction
  • Peak Period 3s
  • Average Period 3s
  • Wind
    7mph, 9mph gusts
  • Sea Temp 56°f
  • Air Temp 60°f
  • Sea Pressure 1011mb
  • West Superior - 30nm Ne Of Outer Island, Wi
  • West Superior - 30nm Ne Of Outer Island, Wi

More Historic Weather Station data

Upgrade to MSW Pro to gain access to the past 30 days of data for over 8000 Wavebouys and Weather Stations around the globe.

Join

Comparision Forecast

View Surf forecast
   
Mon 09/25 3:50am 1ft 3s 3s 7 9 mph 1011mb 56f 60f
2:50am 0.7ft  -  3s 4 7 mph 1011.4mb 56f 59f
1:50am 0.7ft  -  3s 7 7 mph 1010.6mb 55f 61f
12:50am 0.7ft  -  3s 7 9 mph 1010.6mb 56f 62f
Sun 09/24 10:50pm 0.7ft  -  3s 11 13 mph 1010.3mb 55f 63f
9:50pm 0.3ft  -  3s 11 13 mph 1010.5mb 55f 64f
8:50pm 0.3ft  -  3s 7 9 mph 1010.6mb 56f 63f
7:50pm 0.3ft  -  3s 9 9 mph 1010.7mb 57f 65f
6:50pm 0.3ft  -  3s 9 11 mph 1010.9mb 57f 64f
5:50pm 0.3ft  -  3s 7 7 mph 1011.2mb 58f 65f
4:50pm 0.3ft  -  3s 4 4 mph 1011.6mb 58f 65f
3:50pm 0.3ft  -  3s 7 7 mph 1011.9mb 59f 66f
2:50pm 0.3ft  -  3s 2 4 mph 1012.6mb 60f 65f
1:50pm 0.7ft  -  3s 4 7 mph 1012.8mb 58f 67f
12:50pm 0.7ft  -  3s 7 7 mph 1013.5mb 57f 65f
11:50am 0.7ft  -  3s 7 9 mph 1013.9mb 56f 62f
10:50am 1ft 3s 3s 7 9 mph 1014.1mb 55f 59f
9:50am 1ft 3s 3s 7 7 mph 1014.2mb 55f 59f
8:50am 1ft 3s 3s 9 9 mph 1014.6mb 55f 58f
7:50am 0.7ft  -  3s 11 11 mph 1014.7mb 54f 58f
6:50am 0.7ft  -  3s 11 13 mph 1014.8mb 55f 58f
5:50am 0.7ft  -  3s 9 9 mph 1014.3mb 55f 59f
4:50am 0.3ft  -  3s 11 11 mph 1014.4mb 55f 59f
3:50am 0.3ft  -  3s 4 7 mph 1014.6mb 55f 59f
2:50am 0.3ft  -  4s 11 13 mph 1014.6mb 56f 60f
1:50am 0.3ft  -  4s 7 7 mph 1015.1mb 56f 60f
12:50am 0.3ft  -  4s 7 9 mph 1015.1mb 56f 60f
Sat 09/23 11:50pm 0.3ft  -  4s 7 7 mph 1014.6mb 56f 60f
10:50pm 0.3ft  -  3s 2 2 mph 1015mb 56f 64f
9:50pm 0.3ft  -  3s 2 4 mph 1014.9mb 56f 62f
8:50pm 0.7ft  -  3s 7 9 mph 1014.8mb 56f 61f
7:50pm 0.7ft  -  3s 7 9 mph 1014.2mb 57f 60f
6:50pm 0.7ft  -  3s 7 7 mph 1013.8mb 56f 64f
5:50pm 0.7ft  -  3s  -  2 mph 1013.1mb 57f 71f
4:50pm 1ft 4s 4s 2 2 mph 1013mb 56f 66f
3:50pm 0.7ft  -  4s 7 9 mph 1012.8mb 55f 63f
2:50pm 0.7ft  -  3s 7 11 mph 1013mb 55f 62f
1:50pm 1ft 4s 4s 9 9 mph 1013mb 55f 62f
12:50pm 1ft 4s 4s 11 11 mph 1013.3mb 55f 62f
11:50am 1ft 4s 3s 9 11 mph 1013.3mb 55f 62f
10:50am 1ft 4s 4s 11 11 mph 1013.5mb 55f 62f
9:50am 1ft 4s 3s 11 11 mph 1012.8mb 55f 62f
8:50am 1ft 4s 4s 13 16 mph 1012mb 55f 64f
7:50am 1.3ft 4s 3s 13 13 mph 1011.5mb 55f 62f
6:50am 1.6ft 4s 3s 11 13 mph 1011.6mb 54f 63f
5:50am 2ft 5s 4s 13 13 mph 1011.4mb 54f 62f
4:50am 2ft 4s 3s 16 18 mph 1010.1mb 54f 63f
3:50am 2.5ft 5s 4s 16 16 mph 1009.8mb 54f 63f
2:50am 2ft 5s 4s 11 13 mph 1009.6mb 54f 64f
1:50am 1ft 3s 3s 4 7 mph 1009.6mb 54f 63f
12:50am 1ft 3s 3s 7 9 mph 1009.2mb 54f 64f
Fri 09/22 11:50pm 1ft 3s 3s 11 13 mph 1008.5mb 54f 63f
10:50pm 1ft 4s 3s 11 11 mph 1008.8mb 54f 61f
9:50pm 1.3ft 4s 3s 11 11 mph 1009.8mb 54f 59f
8:50pm 1.6ft 5s 4s 9 11 mph 1010.3mb 55f 59f
7:50pm 1.6ft 4s 4s 13 13 mph 1010.7mb 55f 60f
6:50pm 1.6ft 4s 4s 16 18 mph 1011.1mb 55f 60f
5:50pm 2ft 4s 4s 13 16 mph 1011.7mb 55f 60f
4:50pm 2ft 4s 4s 9 11 mph 1011.8mb 55f 59f
3:50pm 2ft 4s 4s 11 11 mph 1010.8mb 55f 58f
2:50pm 2ft 4s 3s 7 7 mph 1011.8mb 55f 61f
1:50pm 2.5ft 3s 3s 18 29 mph 1012.1mb 54f 64f
12:50pm 2.5ft 4s 3s 18 22 mph 1008.3mb 54f 62f
11:50am 1.3ft 3s 3s 31 36 mph 1009.5mb 54f 61f
10:50am 1ft 3s 3s 16 20 mph 1012.1mb 54f 64f
9:50am 1.3ft 3s 3s 9 13 mph 1013.1mb 54f 60f
8:50am 1ft 4s 3s 4 7 mph 1012.8mb 54f 60f
7:50am 1ft 3s  -  9 9 mph 1011.3mb 54f 62f
6:50am 1.3ft 4s 4s 9 9 mph 1011.2mb 55f 62f
5:50am 1.3ft 4s 4s 7 7 mph 1011.5mb 55f 59f
4:50am 1.3ft 4s 4s 4 7 mph 1012.1mb 55f 60f
3:50am 1.3ft 4s 4s 9 9 mph 1011.5mb 55f 59f
2:50am 1.3ft 4s 4s 7 7 mph 1011.7mb 55f 59f
1:50am 1.3ft 4s 4s 11 13 mph 1011.6mb 55f 60f
12:50am 1.3ft 4s 4s 9 9 mph 1012.5mb 55f 59f
Thu 09/21 11:50pm 1.6ft 4s  -  9 9 mph 1013.1mb 55f 59f
10:50pm 2ft 4s 4s 9 11 mph 1013.3mb 55f 59f
9:50pm 2ft 4s 3s 13 16 mph 1013.5mb 55f 59f
8:50pm 2.5ft 4s 4s 16 18 mph 1013.5mb 55f 59f
7:50pm 2.5ft 4s 3s 18 18 mph 1013.7mb 54f 58f
6:50pm 2.5ft 3s 3s 18 20 mph 1013.5mb 54f 58f
5:50pm 2ft 3s 3s 18 20 mph 1014mb 55f 58f
4:50pm 1.6ft 3s 3s 18 20 mph 1014.6mb 55f 57f
3:50pm 1.3ft 3s 3s 16 18 mph 1015.1mb 55f 57f
2:50pm 1ft 2s 3s 13 18 mph 1015.7mb 55f 55f
1:50pm 0.7ft  -  3s 13 16 mph 1016.1mb 55f 54f
12:50pm 0.7ft  -  4s 11 13 mph 1017.1mb 55f 55f
11:50am 0.7ft  -  4s 7 7 mph 1017.8mb 55f 54f
10:50am 0.7ft  -  5s 7 7 mph 1017.9mb 55f 55f